Time;durP1;ratioP1;P1;durP2;ratioP2;P2;SDS_P1;SDS_P2;PMS_P1;PMS_P2;Temp;Humidity;BMP_temperature;BMP_pressure;BME280_temperature;BME280_humidity;BME280_pressure;Samples;Min_cycle;Max_cycle;Signal;HPM_P1;HPM_P2
2023/07/19 00:00:40;;;;;;;13.73;12.80;;;18.90;99.90;;;;;;5113301;28;20395;-47
2023/07/19 00:03:05;;;;;;;15.13;14.33;;;19.00;99.90;;;;;;5095823;28;20187;-48
2023/07/19 00:05:31;;;;;;;23.60;22.23;;;18.90;99.90;;;;;;5094828;28;20168;-48
2023/07/19 00:07:57;;;;;;;36.33;34.50;;;18.90;99.90;;;;;;5098728;28;20156;-50
2023/07/19 00:10:23;;;;;;;47.50;45.03;;;18.90;99.90;;;;;;5118419;28;20447;-46
2023/07/19 00:12:48;;;;;;;41.83;39.67;;;18.90;99.90;;;;;;5117364;28;20160;-47
2023/07/19 00:15:14;;;;;;;23.23;22.00;;;18.90;99.90;;;;;;5099178;28;20627;-50
2023/07/19 00:17:42;;;;;;;32.63;30.77;;;18.80;99.90;;;;;;5117393;28;20246;-45
2023/07/19 00:20:08;;;;;;;38.77;36.57;;;18.80;99.90;;;;;;5120066;28;20263;-47
2023/07/19 00:22:33;;;;;;;54.17;51.33;;;18.80;99.90;;;;;;5104607;28;20535;-44
2023/07/19 00:24:59;;;;;;;63.77;60.60;;;18.80;99.90;;;;;;5103816;28;20195;-45
2023/07/19 00:27:25;;;;;;;77.17;73.40;;;18.80;99.90;;;;;;5103662;28;20183;-42
2023/07/19 00:29:51;;;;;;;76.17;72.17;;;18.80;99.90;;;;;;5103738;28;20275;-45
2023/07/19 00:32:17;;;;;;;65.20;61.97;;;18.70;99.90;;;;;;5103401;28;20175;-46
2023/07/19 00:34:43;;;;;;;59.63;56.73;;;18.70;99.90;;;;;;5102453;28;20195;-44
2023/07/19 00:37:09;;;;;;;60.70;57.27;;;18.70;99.90;;;;;;5101553;28;20508;-45
2023/07/19 00:39:34;;;;;;;68.03;64.43;;;18.70;99.90;;;;;;5102267;28;20179;-47
2023/07/19 00:42:01;;;;;;;64.93;61.57;;;18.70;99.90;;;;;;5103252;28;20183;-47
2023/07/19 00:44:27;;;;;;;71.83;68.23;;;18.70;99.90;;;;;;5102661;28;20199;-46
2023/07/19 00:46:53;;;;;;;66.73;63.13;;;18.70;99.90;;;;;;5102345;28;20554;-44
2023/07/19 00:49:19;;;;;;;68.83;65.43;;;18.70;99.90;;;;;;5103378;28;20175;-45
2023/07/19 00:51:45;;;;;;;60.90;57.67;;;18.70;99.90;;;;;;5103305;28;20163;-47
2023/07/19 00:54:11;;;;;;;60.47;57.07;;;18.70;99.90;;;;;;5103950;28;20232;-43
2023/07/19 00:56:38;;;;;;;70.33;66.53;;;18.70;99.90;;;;;;5121300;28;20223;-44
2023/07/19 00:59:04;;;;;;;67.27;63.90;;;18.70;99.90;;;;;;5103730;28;20206;-43
2023/07/19 01:01:30;;;;;;;59.90;56.90;;;18.60;99.90;;;;;;5103255;28;20178;-46
2023/07/19 01:03:56;;;;;;;64.70;61.40;;;18.60;99.90;;;;;;5102956;28;20195;-47
2023/07/19 01:06:28;;;;;;;55.33;52.47;;;18.60;99.90;;;;;;5102273;28;20167;-48
2023/07/19 01:08:54;;;;;;;57.13;54.23;;;18.60;99.90;;;;;;5102031;28;20175;-44
2023/07/19 01:11:19;;;;;;;57.33;54.37;;;18.60;99.90;;;;;;5101746;28;20160;-48
2023/07/19 01:13:55;;;;;;;56.43;53.43;;;18.60;99.90;;;;;;5101522;28;20187;-45
2023/07/19 01:16:22;;;;;;;57.10;54.23;;;18.60;99.90;;;;;;5101905;28;20185;-46
2023/07/19 01:18:49;;;;;;;60.13;57.07;;;18.60;99.90;;;;;;5118974;28;20171;-43
2023/07/19 01:21:14;;;;;;;57.73;54.83;;;18.60;99.90;;;;;;5119821;28;20163;-43
2023/07/19 01:23:40;;;;;;;60.20;57.10;;;18.50;99.90;;;;;;5102824;28;20213;-45
2023/07/19 01:26:06;;;;;;;75.70;71.70;;;18.50;99.90;;;;;;5103450;28;20174;-44
2023/07/19 01:28:32;;;;;;;75.47;71.37;;;18.50;99.90;;;;;;5102404;28;20207;-44
2023/07/19 01:31:04;;;;;;;78.77;74.67;;;18.50;99.90;;;;;;5103095;28;20175;-43
2023/07/19 01:33:32;;;;;;;79.57;75.40;;;18.50;99.90;;;;;;5102993;28;20168;-46
2023/07/19 01:35:58;;;;;;;75.53;71.43;;;18.50;99.90;;;;;;5102780;28;20236;-44
2023/07/19 01:38:24;;;;;;;76.97;73.00;;;18.60;99.90;;;;;;5102417;28;20167;-44
2023/07/19 01:40:49;;;;;;;61.80;58.60;;;18.50;99.90;;;;;;5101937;28;20248;-47
2023/07/19 01:43:15;;;;;;;50.37;47.63;;;18.50;99.90;;;;;;5119693;28;20199;-45
2023/07/19 01:45:41;;;;;;;31.87;30.20;;;18.50;99.90;;;;;;5101939;28;20262;-46
2023/07/19 01:48:06;;;;;;;24.00;22.67;;;18.50;99.90;;;;;;5119661;28;20159;-46
2023/07/19 01:50:32;;;;;;;15.47;14.40;;;18.50;99.90;;;;;;5102504;28;20167;-48
2023/07/19 01:52:58;;;;;;;13.27;12.37;;;18.50;99.90;;;;;;5102779;28;20170;-51
2023/07/19 01:55:23;;;;;;;11.40;10.57;;;18.50;99.90;;;;;;5102572;28;20175;-44
2023/07/19 01:57:49;;;;;;;9.50;8.63;;;18.50;99.90;;;;;;5084771;28;20312;-45
2023/07/19 02:00:15;;;;;;;8.03;7.43;;;18.50;99.90;;;;;;5082031;28;20552;-45
2023/07/19 02:02:40;;;;;;;6.93;6.53;;;18.50;99.90;;;;;;5099501;28;20467;-45
2023/07/19 02:05:07;;;;;;;9.17;7.67;;;18.50;99.90;;;;;;5081085;28;20491;-47
2023/07/19 02:07:35;;;;;;;8.07;7.37;;;18.50;99.90;;;;;;5081750;28;20175;-46
2023/07/19 02:10:01;;;;;;;7.50;6.80;;;18.50;99.90;;;;;;5098769;28;20164;-46
2023/07/19 02:12:27;;;;;;;7.57;6.87;;;18.50;99.90;;;;;;5080874;28;20175;-45
2023/07/19 02:14:56;;;;;;;7.70;7.00;;;18.50;99.90;;;;;;5081054;28;20249;-45
2023/07/19 02:17:22;;;;;;;5.87;5.57;;;18.50;99.90;;;;;;5081677;28;20167;-48
2023/07/19 02:19:48;;;;;;;6.43;6.07;;;18.50;99.90;;;;;;5081443;28;20166;-46
2023/07/19 02:22:15;;;;;;;6.80;6.30;;;18.50;99.90;;;;;;5098468;28;20172;-46
2023/07/19 02:24:41;;;;;;;7.40;7.00;;;18.50;99.90;;;;;;5080272;28;20574;-46
2023/07/19 02:27:07;;;;;;;7.77;7.07;;;18.50;99.90;;;;;;5098590;28;20734;-43
2023/07/19 02:29:32;;;;;;;8.50;7.80;;;18.50;99.90;;;;;;5080607;28;20800;-44
2023/07/19 02:31:58;;;;;;;9.60;9.10;;;18.40;99.90;;;;;;5081058;28;20275;-44
2023/07/19 02:34:31;;;;;;;9.97;9.37;;;18.40;99.90;;;;;;5098980;28;20184;-49
2023/07/19 02:36:57;;;;;;;9.87;9.17;;;18.40;99.90;;;;;;5080993;28;20176;-45
2023/07/19 02:39:26;;;;;;;10.67;9.87;;;18.40;99.90;;;;;;5098490;28;20180;-46
2023/07/19 02:41:52;;;;;;;10.93;10.23;;;18.30;99.90;;;;;;5081041;28;20172;-48
2023/07/19 02:44:17;;;;;;;10.63;9.93;;;18.40;99.90;;;;;;5081240;28;20192;-47
2023/07/19 02:46:43;;;;;;;11.80;11.10;;;18.30;99.90;;;;;;5098770;28;20575;-46
2023/07/19 02:49:09;;;;;;;11.67;11.07;;;18.30;99.90;;;;;;5080590;28;20309;-43
2023/07/19 02:51:34;;;;;;;14.57;13.77;;;18.30;99.90;;;;;;5098444;28;20172;-47
2023/07/19 02:54:00;;;;;;;14.30;13.40;;;18.30;99.90;;;;;;5080842;28;20570;-47
2023/07/19 02:56:26;;;;;;;16.00;15.17;;;18.30;99.90;;;;;;5103471;28;20223;-44
2023/07/19 02:58:52;;;;;;;15.87;14.97;;;18.30;99.90;;;;;;5099844;28;20182;-44
2023/07/19 03:01:17;;;;;;;15.43;14.53;;;18.30;99.90;;;;;;5100237;28;20179;-44
2023/07/19 03:03:43;;;;;;;14.17;13.47;;;18.30;99.90;;;;;;5100472;28;20199;-48
2023/07/19 03:06:12;;;;;;;16.33;15.23;;;18.30;99.90;;;;;;5118216;28;20291;-46
2023/07/19 03:08:38;;;;;;;15.83;15.03;;;18.20;99.90;;;;;;5099926;28;20159;-44
2023/07/19 03:11:06;;;;;;;11.43;10.70;;;18.20;99.90;;;;;;5099890;28;20266;-44
2023/07/19 03:13:32;;;;;;;8.53;7.87;;;18.10;99.90;;;;;;5099065;28;20601;-45
2023/07/19 03:15:58;;;;;;;13.10;12.27;;;18.00;99.90;;;;;;5116401;28;20451;-46
2023/07/19 03:18:24;;;;;;;15.17;14.37;;;18.00;99.90;;;;;;5098740;28;20808;-48
2023/07/19 03:21:00;;;;;;;14.23;13.43;;;18.00;99.90;;;;;;5116447;28;20780;-44
2023/07/19 03:23:26;;;;;;;21.90;20.77;;;18.00;99.90;;;;;;5098526;28;20191;-46
2023/07/19 03:25:53;;;;;;;21.93;20.70;;;18.00;99.90;;;;;;5098224;28;20228;-46
2023/07/19 03:28:18;;;;;;;21.80;20.47;;;18.00;99.90;;;;;;5116660;28;20174;-45
2023/07/19 03:30:44;;;;;;;16.40;15.43;;;18.00;99.90;;;;;;5116816;28;20170;-44
2023/07/19 03:33:09;;;;;;;12.60;11.90;;;18.00;99.90;;;;;;5098963;28;20175;-43
2023/07/19 03:35:35;;;;;;;13.77;12.73;;;18.00;99.90;;;;;;5099420;28;20197;-47
2023/07/19 03:38:02;;;;;;;14.20;13.23;;;17.90;99.90;;;;;;5117527;28;20254;-47
2023/07/19 03:40:28;;;;;;;14.43;13.73;;;17.90;99.90;;;;;;5099683;28;20528;-45
2023/07/19 03:42:53;;;;;;;13.13;12.17;;;17.90;99.90;;;;;;5103242;28;20567;-44
2023/07/19 03:45:19;;;;;;;12.50;11.70;;;17.90;99.90;;;;;;5103360;28;20182;-48
2023/07/19 03:47:44;;;;;;;11.97;11.07;;;17.80;99.90;;;;;;5102661;28;20210;-46
2023/07/19 03:50:10;;;;;;;10.57;10.07;;;17.80;99.90;;;;;;5119846;28;20242;-47
2023/07/19 03:52:35;;;;;;;9.47;8.87;;;17.80;99.90;;;;;;5120332;28;20175;-44
2023/07/19 03:58:25;;;;;;;10.77;10.27;;;17.80;99.90;;;;;;5052040;28;1078649;-44
2023/07/19 04:00:55;;;;;;;9.13;8.50;;;17.80;99.90;;;;;;5083529;28;20213;-44
2023/07/19 04:03:21;;;;;;;9.27;8.63;;;17.80;99.90;;;;;;5083609;28;20204;-45
2023/07/19 04:05:47;;;;;;;9.90;9.47;;;17.80;99.90;;;;;;5083461;28;20168;-47
2023/07/19 04:08:16;;;;;;;10.93;10.17;;;17.70;99.90;;;;;;5083489;28;20241;-46
2023/07/19 04:10:42;;;;;;;7.13;6.70;;;17.70;99.90;;;;;;5083767;28;20266;-49
2023/07/19 04:13:10;;;;;;;10.77;10.03;;;17.70;99.90;;;;;;5083373;28;20172;-44
2023/07/19 04:15:36;;;;;;;11.40;10.73;;;17.70;99.90;;;;;;5099802;28;20231;-46
2023/07/19 04:18:02;;;;;;;8.27;7.67;;;17.70;99.90;;;;;;5082523;28;20600;-43
2023/07/19 04:20:28;;;;;;;10.70;10.07;;;17.70;99.90;;;;;;5082626;28;20245;-48
2023/07/19 04:22:57;;;;;;;10.30;9.50;;;17.70;99.90;;;;;;5083063;28;20168;-43
2023/07/19 04:25:24;;;;;;;9.07;7.93;;;17.60;99.90;;;;;;5083331;28;20184;-48
2023/07/19 04:27:50;;;;;;;11.27;10.57;;;17.60;99.90;;;;;;5082862;28;20605;-45
2023/07/19 04:30:16;;;;;;;12.10;11.30;;;17.60;99.90;;;;;;5082564;28;20187;-47
2023/07/19 04:32:41;;;;;;;13.33;12.63;;;17.60;99.90;;;;;;5082552;28;20169;-47
2023/07/19 04:35:07;;;;;;;14.50;13.67;;;17.60;99.90;;;;;;5082999;28;20211;-45
2023/07/19 04:37:33;;;;;;;13.00;12.10;;;17.60;99.90;;;;;;5082970;28;20175;-46
2023/07/19 04:39:58;;;;;;;18.57;17.67;;;17.60;99.90;;;;;;5082018;28;20268;-46
2023/07/19 04:42:24;;;;;;;16.73;15.90;;;17.60;99.90;;;;;;5081528;28;20168;-44
2023/07/19 04:44:50;;;;;;;21.83;20.73;;;17.60;99.90;;;;;;5081952;28;20221;-45
2023/07/19 04:47:16;;;;;;;23.97;22.70;;;17.60;99.90;;;;;;5099466;28;20255;-48
2023/07/19 04:49:42;;;;;;;27.33;25.93;;;17.60;99.90;;;;;;5098714;28;20161;-46
2023/07/19 04:52:08;;;;;;;26.83;25.27;;;17.60;99.90;;;;;;5080938;28;20190;-44
2023/07/19 04:54:33;;;;;;;27.83;26.23;;;17.60;99.90;;;;;;5098829;28;20172;-44
2023/07/19 04:56:59;;;;;;;25.90;24.47;;;17.60;99.90;;;;;;5081422;28;20227;-46
2023/07/19 04:59:25;;;;;;;26.87;25.43;;;17.60;99.90;;;;;;5081172;28;20168;-46
2023/07/19 05:01:50;;;;;;;25.23;23.97;;;17.70;99.90;;;;;;5080962;28;20556;-44
2023/07/19 05:04:16;;;;;;;27.23;25.80;;;17.70;99.90;;;;;;5081430;28;20213;-46
2023/07/19 05:06:41;;;;;;;32.23;30.60;;;17.70;99.90;;;;;;5081029;28;20591;-45
2023/07/19 05:09:09;;;;;;;23.50;22.30;;;17.60;99.90;;;;;;5082067;28;20571;-45
2023/07/19 05:11:34;;;;;;;21.67;20.47;;;17.60;99.90;;;;;;5082155;28;20179;-43
2023/07/19 05:14:00;;;;;;;18.20;17.27;;;17.60;99.90;;;;;;5082938;28;20180;-44
2023/07/19 05:16:26;;;;;;;16.80;15.90;;;17.60;99.90;;;;;;5081862;28;20270;-44
2023/07/19 05:18:52;;;;;;;22.20;20.97;;;17.60;99.90;;;;;;5080311;28;20487;-46
2023/07/19 05:21:18;;;;;;;27.87;26.43;;;17.60;99.90;;;;;;5080638;28;20270;-45
2023/07/19 05:23:43;;;;;;;26.03;24.73;;;17.50;99.90;;;;;;5099043;28;20203;-45
2023/07/19 05:26:09;;;;;;;26.53;25.23;;;17.50;99.90;;;;;;5080873;28;20176;-44
2023/07/19 05:28:35;;;;;;;27.47;25.97;;;17.50;99.90;;;;;;5080294;28;20183;-47
2023/07/19 05:31:05;;;;;;;25.40;24.17;;;17.50;99.90;;;;;;5080612;28;20502;-45
2023/07/19 05:33:32;;;;;;;31.90;30.13;;;17.50;99.90;;;;;;5098915;28;20164;-47
2023/07/19 05:36:05;;;;;;;35.57;33.77;;;17.50;99.90;;;;;;5097949;28;20484;-47
2023/07/19 05:38:32;;;;;;;34.53;32.80;;;17.50;99.90;;;;;;5080858;28;20168;-51
2023/07/19 05:41:02;;;;;;;33.90;32.27;;;17.40;99.90;;;;;;5098340;28;20168;-45
2023/07/19 05:43:28;;;;;;;38.03;35.93;;;17.40;99.90;;;;;;5098114;28;20208;-48
2023/07/19 05:46:00;;;;;;;33.67;32.00;;;17.40;99.90;;;;;;5097573;28;20161;-46
2023/07/19 05:48:26;;;;;;;29.67;28.10;;;17.30;99.90;;;;;;5098007;28;20285;-44
2023/07/19 05:50:52;;;;;;;35.37;33.57;;;17.40;99.90;;;;;;5080696;28;20226;-44
2023/07/19 05:53:17;;;;;;;37.47;35.57;;;17.40;99.90;;;;;;5080894;28;20199;-44
2023/07/19 05:55:43;;;;;;;38.87;36.70;;;17.40;99.90;;;;;;5097955;28;20350;-44
2023/07/19 05:58:09;;;;;;;40.53;38.57;;;17.40;99.90;;;;;;5081240;28;20277;-45
2023/07/19 06:00:34;;;;;;;36.17;34.13;;;17.40;99.90;;;;;;5098311;28;20177;-49
2023/07/19 06:03:00;;;;;;;42.40;40.20;;;17.40;99.90;;;;;;5097725;28;20180;-44
2023/07/19 06:05:26;;;;;;;39.10;37.20;;;17.40;99.90;;;;;;5078655;28;20186;-45
2023/07/19 06:07:52;;;;;;;37.47;35.57;;;17.40;99.90;;;;;;5095838;28;20179;-44
2023/07/19 06:10:18;;;;;;;41.47;39.40;;;17.40;99.90;;;;;;5079123;28;20195;-49
2023/07/19 06:12:45;;;;;;;41.87;39.73;;;17.40;99.90;;;;;;5079100;28;20222;-48
2023/07/19 06:15:11;;;;;;;36.40;34.57;;;17.40;99.90;;;;;;5078741;28;20299;-46
2023/07/19 06:17:37;;;;;;;33.37;31.47;;;17.40;99.90;;;;;;5079212;28;20179;-46
2023/07/19 06:20:05;;;;;;;30.30;28.80;;;17.40;99.90;;;;;;5079396;28;20160;-47
2023/07/19 06:22:31;;;;;;;28.13;26.57;;;17.40;99.90;;;;;;5079664;28;20164;-45
2023/07/19 06:25:00;;;;;;;26.27;24.80;;;17.40;99.90;;;;;;5079360;28;20202;-45
2023/07/19 06:27:25;;;;;;;25.37;23.97;;;17.40;99.90;;;;;;5097572;28;20183;-47
2023/07/19 06:29:51;;;;;;;26.90;25.37;;;17.40;99.90;;;;;;5079351;28;20180;-46
2023/07/19 06:32:17;;;;;;;26.17;24.77;;;17.40;99.90;;;;;;5077413;28;20165;-44
2023/07/19 06:34:43;;;;;;;38.97;36.87;;;17.40;99.90;;;;;;5095643;28;20194;-44
2023/07/19 06:37:09;;;;;;;41.23;39.20;;;17.40;99.90;;;;;;5078117;28;20164;-44
2023/07/19 06:39:34;;;;;;;51.07;48.47;;;17.50;99.90;;;;;;5078116;28;20175;-46
2023/07/19 06:42:00;;;;;;;57.90;55.00;;;17.50;99.90;;;;;;5096033;28;20180;-49
2023/07/19 06:44:26;;;;;;;60.13;57.03;;;17.50;99.90;;;;;;5076876;28;20250;-48
2023/07/19 06:46:52;;;;;;;56.93;54.00;;;17.50;99.90;;;;;;5096345;28;20168;-47
2023/07/19 06:49:19;;;;;;;53.53;50.93;;;17.50;99.90;;;;;;5077865;28;20171;-46
2023/07/19 06:51:45;;;;;;;54.63;51.97;;;17.50;99.90;;;;;;5077461;28;20259;-47
2023/07/19 06:54:11;;;;;;;59.37;56.43;;;17.60;99.90;;;;;;5094258;28;20263;-45
2023/07/19 06:56:37;;;;;;;61.30;58.10;;;17.60;99.90;;;;;;5076158;28;20241;-47
2023/07/19 06:59:03;;;;;;;61.40;58.07;;;17.60;99.90;;;;;;5075597;28;20227;-45
2023/07/19 07:01:29;;;;;;;62.87;59.83;;;17.60;99.90;;;;;;5095366;28;20174;-48
2023/07/19 07:03:57;;;;;;;62.37;59.23;;;17.60;99.90;;;;;;5077923;28;20203;-47
2023/07/19 07:06:22;;;;;;;55.67;52.80;;;17.60;99.90;;;;;;5095793;28;20247;-44
2023/07/19 07:08:48;;;;;;;62.50;59.33;;;17.60;99.90;;;;;;5094662;28;20263;-47
2023/07/19 07:11:15;;;;;;;52.97;50.33;;;17.60;99.90;;;;;;5077483;28;20207;-50
2023/07/19 07:13:42;;;;;;;65.23;62.03;;;17.50;99.90;;;;;;5078662;28;20548;-47
2023/07/19 07:16:08;;;;;;;57.80;54.63;;;17.60;99.90;;;;;;5077596;28;20617;-45
2023/07/19 07:18:34;;;;;;;58.77;55.73;;;17.60;99.90;;;;;;5094866;28;20164;-47
2023/07/19 07:21:02;;;;;;;45.87;43.57;;;17.70;99.90;;;;;;5076916;28;20187;-46
2023/07/19 07:23:29;;;;;;;41.97;39.73;;;17.70;99.90;;;;;;5077340;28;20192;-47
2023/07/19 07:25:57;;;;;;;36.60;34.80;;;17.80;99.90;;;;;;5076813;28;20163;-48
2023/07/19 07:28:23;;;;;;;33.27;31.50;;;17.80;99.90;;;;;;5075967;28;20176;-47
2023/07/19 07:30:49;;;;;;;24.27;23.10;;;17.90;99.90;;;;;;5092513;28;20172;-46
2023/07/19 07:33:15;;;;;;;22.90;21.60;;;17.90;99.90;;;;;;5059126;28;20195;-46
2023/07/19 07:35:42;;;;;;;25.13;23.93;;;17.90;99.90;;;;;;5075810;28;20711;-46
2023/07/19 07:38:08;;;;;;;21.00;19.93;;;18.00;99.90;;;;;;5076056;28;20171;-45
2023/07/19 07:40:34;;;;;;;22.67;21.47;;;18.00;99.90;;;;;;5092065;28;20484;-44
2023/07/19 07:43:00;;;;;;;22.73;21.63;;;18.00;99.90;;;;;;5074876;28;20175;-49
2023/07/19 07:45:26;;;;;;;21.53;20.33;;;18.00;99.90;;;;;;5074417;28;20196;-48
2023/07/19 07:47:52;;;;;;;21.13;20.10;;;18.00;99.90;;;;;;5075149;28;20164;-46
2023/07/19 07:50:19;;;;;;;22.53;21.37;;;18.00;99.90;;;;;;5074743;28;20692;-45
2023/07/19 07:52:46;;;;;;;19.73;18.53;;;18.00;99.90;;;;;;5076337;28;20187;-45
2023/07/19 07:55:11;;;;;;;20.67;19.57;;;18.00;99.90;;;;;;5075400;28;20171;-45
2023/07/19 07:57:38;;;;;;;26.30;25.00;;;18.00;99.90;;;;;;5075179;28;20223;-45
2023/07/19 08:00:11;;;;;;;30.87;29.17;;;18.00;99.90;;;;;;5075739;28;20207;-44
2023/07/19 08:02:37;;;;;;;25.90;24.57;;;18.00;99.90;;;;;;5075454;28;20244;-47
2023/07/19 08:05:05;;;;;;;24.00;22.57;;;18.00;99.90;;;;;;5075838;28;20207;-43
2023/07/19 08:07:32;;;;;;;15.63;14.63;;;18.00;99.90;;;;;;5077165;28;20164;-44
2023/07/19 08:09:59;;;;;;;16.60;15.70;;;18.10;99.90;;;;;;5076484;28;20175;-45
2023/07/19 08:12:26;;;;;;;19.37;18.43;;;18.10;99.90;;;;;;5094718;28;20168;-46
2023/07/19 08:14:52;;;;;;;17.57;16.70;;;18.20;99.90;;;;;;5077074;28;20183;-44
2023/07/19 08:17:17;;;;;;;14.60;13.77;;;18.30;99.90;;;;;;5093439;28;20168;-48
2023/07/19 08:19:43;;;;;;;11.97;11.23;;;18.30;99.90;;;;;;5076227;28;20168;-45
2023/07/19 08:22:27;;;;;;;10.80;10.17;;;18.30;99.90;;;;;;5076413;28;20169;-44
2023/07/19 08:24:56;;;;;;;9.53;8.83;;;18.40;99.90;;;;;;5092519;28;20192;-45
2023/07/19 08:27:24;;;;;;;7.13;6.80;;;18.40;99.90;;;;;;5078604;28;20190;-45
2023/07/19 08:29:51;;;;;;;5.67;5.37;;;18.60;99.90;;;;;;5098263;28;20543;-47
2023/07/19 08:32:17;;;;;;;5.20;5.00;;;18.70;99.90;;;;;;5063447;28;20168;-48
2023/07/19 08:34:43;;;;;;;4.53;4.10;;;18.70;99.90;;;;;;5080092;28;20160;-47
2023/07/19 08:37:10;;;;;;;4.47;3.63;;;18.70;99.90;;;;;;5097296;28;20164;-47
2023/07/19 08:39:37;;;;;;;3.83;3.63;;;18.70;99.90;;;;;;5096773;28;20224;-47
2023/07/19 08:42:04;;;;;;;3.73;3.53;;;18.70;99.90;;;;;;5078003;28;20340;-48
2023/07/19 08:44:31;;;;;;;3.17;2.93;;;18.80;99.90;;;;;;5077891;28;20238;-48
2023/07/19 08:46:57;;;;;;;2.73;2.60;;;18.80;99.90;;;;;;5078567;28;20168;-46
2023/07/19 08:49:24;;;;;;;2.67;2.57;;;18.80;99.90;;;;;;5077892;28;20168;-46
2023/07/19 08:51:50;;;;;;;2.53;2.33;;;18.90;99.90;;;;;;5076740;28;20168;-47
2023/07/19 08:54:17;;;;;;;6.23;2.20;;;18.90;99.90;;;;;;5096955;28;20203;-46
2023/07/19 08:56:43;;;;;;;3.43;2.23;;;18.80;99.90;;;;;;5079739;28;20179;-47
2023/07/19 08:59:09;;;;;;;2.30;2.00;;;18.90;99.90;;;;;;5115884;28;20179;-47
2023/07/19 09:01:35;;;;;;;2.13;1.67;;;19.00;99.90;;;;;;5116647;28;20200;-47
2023/07/19 09:04:07;;;;;;;2.17;1.83;;;19.00;99.90;;;;;;5097722;28;20203;-45
2023/07/19 09:06:34;;;;;;;2.27;1.80;;;19.00;99.90;;;;;;5098566;28;20278;-46
2023/07/19 09:09:01;;;;;;;2.00;1.60;;;19.00;99.90;;;;;;5114919;28;20168;-45
2023/07/19 09:11:26;;;;;;;2.17;2.00;;;19.00;99.90;;;;;;5113366;28;20201;-46
2023/07/19 09:13:54;;;;;;;2.20;2.00;;;19.00;99.90;;;;;;5096655;28;20207;-47
2023/07/19 09:16:28;;;;;;;2.07;1.87;;;19.10;99.90;;;;;;5098295;28;20197;-46
2023/07/19 09:19:00;;;;;;;2.03;1.93;;;19.10;99.90;;;;;;5097317;28;20248;-46
2023/07/19 09:21:44;;;;;;;2.67;2.47;;;19.20;99.90;;;;;;5099088;28;20171;-46
2023/07/19 09:24:11;;;;;;;2.20;2.10;;;19.30;99.90;;;;;;5116879;28;20338;-45
2023/07/19 09:26:53;;;;;;;2.67;2.47;;;19.30;99.90;;;;;;5099198;28;20549;-46
2023/07/19 09:29:20;;;;;;;3.23;2.13;;;19.40;99.90;;;;;;5100558;28;20172;-45
2023/07/19 09:32:00;;;;;;;1.87;1.77;;;19.40;99.90;;;;;;5116012;28;20167;-48
2023/07/19 09:34:26;;;;;;;3.80;1.70;;;19.50;99.90;;;;;;5116316;28;20225;-47
2023/07/19 09:36:54;;;;;;;11.17;10.57;;;19.50;99.90;;;;;;5099336;28;20193;-44
2023/07/19 09:39:24;;;;;;;12.27;11.57;;;19.60;99.90;;;;;;5097133;28;20164;-48
2023/07/19 09:41:50;;;;;;;14.60;13.80;;;19.60;99.90;;;;;;5098576;28;20212;-46
2023/07/19 09:44:16;;;;;;;15.57;14.77;;;19.60;99.90;;;;;;5099216;28;20261;-48
2023/07/19 09:46:45;;;;;;;12.60;11.93;;;19.60;99.90;;;;;;5099003;28;20164;-47
2023/07/19 09:49:11;;;;;;;11.10;10.57;;;19.60;99.90;;;;;;5099001;28;20457;-49
2023/07/19 09:51:40;;;;;;;8.77;8.37;;;19.60;99.90;;;;;;5098715;28;20290;-46
2023/07/19 09:54:12;;;;;;;8.73;8.23;;;19.60;99.90;;;;;;5098630;28;20168;-46
2023/07/19 09:56:40;;;;;;;7.20;6.90;;;19.60;99.90;;;;;;5100645;28;20543;-48
2023/07/19 09:59:25;;;;;;;8.10;7.70;;;19.60;99.90;;;;;;5064294;28;20232;-46
2023/07/19 10:01:50;;;;;;;8.63;8.13;;;19.70;99.90;;;;;;5064923;28;20445;-44
2023/07/19 10:04:27;;;;;;;9.77;9.27;;;19.80;99.90;;;;;;5079045;28;20235;-45
2023/07/19 10:07:03;;;;;;;9.97;9.37;;;19.80;99.90;;;;;;5079839;28;20175;-47
2023/07/19 10:09:30;;;;;;;10.50;10.00;;;19.80;99.90;;;;;;5080669;28;20742;-44
2023/07/19 10:12:24;;;;;;;9.10;8.60;;;19.80;99.90;;;;;;5080301;28;20225;-44
2023/07/19 10:15:07;;;;;;;7.00;6.60;;;19.60;99.90;;;;;;5093684;28;20188;-45
2023/07/19 10:17:53;;;;;;;6.17;5.87;;;19.70;99.90;;;;;;5081616;28;20207;-46
2023/07/19 10:20:35;;;;;;;5.80;5.50;;;19.60;99.90;;;;;;5079909;28;20183;-48
2023/07/19 10:23:05;;;;;;;6.07;5.67;;;19.70;99.90;;;;;;5080268;28;20179;-44
2023/07/19 10:25:48;;;;;;;5.70;5.30;;;19.80;99.90;;;;;;5078396;28;20211;-48
2023/07/19 10:28:32;;;;;;;5.80;5.40;;;19.90;99.90;;;;;;5078099;28;20532;-46
2023/07/19 10:31:07;;;;;;;6.47;5.93;;;20.00;99.90;;;;;;5061903;28;20176;-47
2023/07/19 10:33:34;;;;;;;6.23;5.90;;;20.20;99.90;;;;;;5077618;28;20172;-45
2023/07/19 10:36:11;;;;;;;8.27;7.90;;;20.30;99.90;;;;;;5077119;28;20205;-46
2023/07/19 10:38:37;;;;;;;12.07;11.37;;;20.40;99.90;;;;;;5095449;28;20170;-46
2023/07/19 10:41:07;;;;;;;13.87;13.00;;;20.40;99.90;;;;;;5095910;28;20236;-44
2023/07/19 10:43:34;;;;;;;10.10;9.43;;;20.40;99.90;;;;;;5078603;28;20227;-48
2023/07/19 10:46:00;;;;;;;7.50;6.90;;;20.40;99.90;;;;;;5079425;28;20180;-48
2023/07/19 10:48:32;;;;;;;7.00;6.67;;;20.30;99.90;;;;;;5078932;28;20172;-45
2023/07/19 10:50:58;;;;;;;5.27;4.90;;;20.30;99.90;;;;;;5061672;28;20184;-45
2023/07/19 10:53:25;;;;;;;4.97;4.57;;;20.30;99.90;;;;;;5078650;28;20164;-49
2023/07/19 10:56:02;;;;;;;4.40;4.17;;;20.30;99.90;;;;;;5096316;28;20625;-44
2023/07/19 10:58:30;;;;;;;5.47;5.07;;;20.30;99.90;;;;;;5094338;28;20227;-46
2023/07/19 11:00:58;;;;;;;4.53;4.30;;;20.20;99.90;;;;;;5099443;28;20163;-44
2023/07/19 11:03:26;;;;;;;7.43;7.03;;;20.00;99.90;;;;;;5100024;28;20168;-46
2023/07/19 11:05:53;;;;;;;8.73;8.13;;;20.00;99.90;;;;;;5116599;28;20554;-46
2023/07/19 11:08:27;;;;;;;11.63;10.93;;;20.10;99.90;;;;;;5065529;28;20661;-47
2023/07/19 11:10:56;;;;;;;11.37;10.57;;;20.10;99.90;;;;;;5117047;28;20176;-46
2023/07/19 11:13:25;;;;;;;13.10;12.40;;;20.10;99.90;;;;;;5116168;28;20174;-48
2023/07/19 11:15:55;;;;;;;9.43;7.10;;;20.20;99.90;;;;;;5097671;28;20236;-50
2023/07/19 11:18:33;;;;;;;7.63;7.13;;;20.10;99.90;;;;;;5096655;28;20167;-47
2023/07/19 11:20:59;;;;;;;7.67;6.83;;;20.10;99.90;;;;;;5097395;28;20163;-48
2023/07/19 11:23:28;;;;;;;7.07;6.57;;;20.00;99.90;;;;;;5114849;28;20167;-45
2023/07/19 11:26:07;;;;;;;8.10;7.57;;;19.90;99.90;;;;;;5114654;28;20168;-47
2023/07/19 11:28:43;;;;;;;6.97;6.57;;;20.00;99.90;;;;;;5096848;28;20173;-45
2023/07/19 11:31:11;;;;;;;7.23;6.67;;;20.00;99.90;;;;;;5096646;28;20161;-46
2023/07/19 11:33:40;;;;;;;8.83;8.13;;;20.00;99.90;;;;;;5113364;28;20206;-47
2023/07/19 11:36:10;;;;;;;9.53;8.73;;;20.00;99.90;;;;;;5097129;28;20247;-47
2023/07/19 11:38:40;;;;;;;8.00;7.37;;;19.90;99.90;;;;;;5114036;28;20163;-46
2023/07/19 11:41:07;;;;;;;7.57;6.97;;;19.80;99.90;;;;;;5097622;28;20167;-47
2023/07/19 11:43:33;;;;;;;7.47;6.87;;;19.80;99.90;;;;;;5095448;28;20172;-48
2023/07/19 11:45:59;;;;;;;8.93;8.23;;;19.80;99.90;;;;;;5096718;28;20170;-45
2023/07/19 11:48:26;;;;;;;8.77;7.80;;;19.80;99.90;;;;;;5096202;28;20163;-49
2023/07/19 11:50:52;;;;;;;10.67;9.97;;;19.80;99.90;;;;;;5095983;28;20195;-47
2023/07/19 11:53:20;;;;;;;11.33;10.60;;;19.90;99.90;;;;;;5113715;28;20167;-45
2023/07/19 11:55:47;;;;;;;11.57;10.57;;;20.10;99.90;;;;;;5095823;28;20229;-47
2023/07/19 11:58:13;;;;;;;11.40;10.47;;;20.20;99.90;;;;;;5082653;28;20230;-46
2023/07/19 12:00:38;;;;;;;10.13;9.43;;;20.40;99.90;;;;;;5093041;28;20160;-48
2023/07/19 12:03:04;;;;;;;9.40;8.80;;;20.50;99.90;;;;;;5079044;28;20243;-46
2023/07/19 12:05:31;;;;;;;8.53;8.03;;;20.60;99.90;;;;;;5097875;28;20805;-47
2023/07/19 12:07:57;;;;;;;6.10;4.20;;;21.00;99.90;;;;;;5047360;28;20413;-46
2023/07/19 12:10:24;;;;;;;9.20;8.40;;;21.30;99.90;;;;;;5039653;28;20189;-45
2023/07/19 12:12:50;;;;;;;9.23;8.60;;;21.20;99.90;;;;;;5022718;28;20181;-44
2023/07/19 12:15:16;;;;;;;7.63;7.03;;;21.10;99.90;;;;;;5040069;28;20173;-44
2023/07/19 12:17:43;;;;;;;8.00;7.53;;;21.10;99.90;;;;;;5058795;28;20165;-46
2023/07/19 12:20:10;;;;;;;10.40;9.70;;;21.00;99.90;;;;;;5057302;28;20166;-46
2023/07/19 12:22:37;;;;;;;9.47;8.80;;;20.90;99.90;;;;;;5023199;28;20188;-46
2023/07/19 12:25:03;;;;;;;7.47;6.97;;;20.80;99.90;;;;;;5040312;28;20204;-49
2023/07/19 12:27:31;;;;;;;7.00;6.60;;;20.70;99.90;;;;;;5039361;28;20223;-46
2023/07/19 12:29:58;;;;;;;7.77;7.07;;;20.70;99.90;;;;;;5038585;28;20166;-49
2023/07/19 12:32:27;;;;;;;7.23;6.83;;;20.70;99.90;;;;;;5038292;28;20188;-49
2023/07/19 12:34:55;;;;;;;8.97;8.27;;;20.70;99.90;;;;;;5038134;28;20201;-51
2023/07/19 12:37:22;;;;;;;7.47;6.97;;;20.80;99.90;;;;;;5033623;28;20235;-46